Time;durP1;ratioP1;P1;durP2;ratioP2;P2;SDS_P1;SDS_P2;PMS_P1;PMS_P2;Temp;Humidity;BMP_temperature;BMP_pressure;BME280_temperature;BME280_humidity;BME280_pressure;Samples;Min_cycle;Max_cycle;Signal;HPM_P1;HPM_P2
2023/07/06 00:00:31;;;;;;;5.53;3.10;;;;;;;19.83;52.98;100045.66;4866573;28;20042;-83
2023/07/06 00:03:31;;;;;;;4.53;2.65;;;;;;;19.86;52.97;100044.47;4857709;28;20056;-83
2023/07/06 00:06:37;;;;;;;7.15;3.22;;;;;;;19.82;52.95;100035.94;4764778;29;20164;-83
2023/07/06 00:09:38;;;;;;;7.72;2.75;;;;;;;19.79;53.08;100030.91;4808633;29;21296;-83
2023/07/06 00:13:03;;;;;;;4.15;2.90;;;;;;;19.75;53.43;100026.09;4789691;28;20107;-83
2023/07/06 00:16:23;;;;;;;7.75;3.13;;;;;;;19.63;53.99;100042.72;4733513;29;20055;-83
2023/07/06 00:19:48;;;;;;;5.25;3.03;;;;;;;19.63;53.66;100041.88;4723478;29;20489;-83
2023/07/06 00:28:49;;;;;;;4.35;3.00;;;;;;;19.51;54.10;100044.22;4655579;29;20055;-83
2023/07/06 00:36:57;;;;;;;6.72;3.20;;;;;;;19.39;54.28;100054.66;4642114;29;20586;-83
2023/07/06 00:40:17;;;;;;;5.85;3.17;;;;;;;19.47;53.68;100051.03;4711589;29;20047;-83
2023/07/06 00:42:48;;;;;;;10.65;3.22;;;;;;;19.47;53.63;100048.34;4786440;29;20560;-83
2023/07/06 00:46:08;;;;;;;4.75;2.45;;;;;;;19.35;54.35;100047.16;4788870;29;20241;-83
2023/07/06 00:50:12;;;;;;;;;;;;;;;;;;;;;
2023/07/06 00:54:33;;;;;;;6.25;3.25;;;;;;;19.18;54.61;100044.63;4655240;29;20063;-83
2023/07/06 00:57:49;;;;;;;6.80;2.95;;;;;;;19.26;54.13;100043.72;4619929;30;20052;-83
2023/07/06 01:00:48;;;;;;;5.00;2.92;;;;;;;19.33;54.01;100036.56;4643188;29;20205;-83
2023/07/06 01:22:01;;;;;;;10.07;3.13;;;;;;;18.96;55.06;100043.72;4567451;30;20143;-83
2023/07/06 01:25:34;;;;;;;6.28;3.03;;;;;;;18.99;54.78;100047.91;4525319;30;20098;-83
2023/07/06 01:42:25;;;;;;;5.68;2.90;;;;;;;18.80;55.39;100046.56;4705383;29;20085;-83
2023/07/06 01:45:29;;;;;;;3.90;2.75;;;;;;;18.89;55.06;100045.47;4802682;29;20539;-83
2023/07/06 01:49:13;;;;;;;5.40;2.67;;;;;;;18.75;55.58;100047.16;4754286;29;20445;-83
2023/07/06 01:53:17;;;;;;;;;;;;;;;;;;;;;
2023/07/06 02:06:38;;;;;;;9.90;3.20;;;;;;;18.69;55.26;100026.31;4581997;30;20512;-83
2023/07/06 02:10:01;;;;;;;;;;;;;;;;;;;;;
2023/07/06 02:13:41;;;;;;;4.85;2.90;;;;;;;18.50;56.36;100035.75;4627382;29;20570;-83
2023/07/06 02:17:28;;;;;;;5.88;3.10;;;;;;;18.55;56.39;100038.75;4653250;29;20093;-83
2023/07/06 02:23:54;;;;;;;10.98;3.35;;;;;;;18.42;56.02;100047.44;4693828;29;20059;-83
2023/07/06 02:26:55;;;;;;;6.60;3.40;;;;;;;18.37;56.23;100041.75;4666370;29;20198;-83
2023/07/06 02:30:19;;;;;;;6.18;3.15;;;;;;;18.38;56.17;100038.03;4690258;29;20046;-83
2023/07/06 02:33:30;;;;;;;4.90;2.70;;;;;;;18.35;56.69;100041.09;4698039;29;20084;-83
2023/07/06 02:36:17;;;;;;;7.10;3.75;;;;;;;18.46;55.96;100041.69;4803759;29;20049;-83
2023/07/06 02:39:01;;;;;;;4.93;3.05;;;;;;;18.36;56.32;100037.38;4741060;29;20060;-83
2023/07/06 02:42:34;;;;;;;5.57;3.60;;;;;;;18.32;56.35;100040.59;4793966;29;20071;-83
2023/07/06 02:45:37;;;;;;;5.75;3.20;;;;;;;18.33;55.71;100043.13;4793777;28;20161;-83
2023/07/06 02:49:07;;;;;;;4.47;2.53;;;;;;;18.17;56.34;100040.59;4775400;28;20231;-83
2023/07/06 02:56:52;;;;;;;5.90;3.30;;;;;;;18.25;55.83;100039.69;4804367;29;20534;-83
2023/07/06 03:00:00;;;;;;;6.13;3.22;;;;;;;18.22;56.01;100049.78;4756926;29;20068;-83
2023/07/06 03:02:56;;;;;;;5.38;2.90;;;;;;;18.16;55.89;100047.78;4760236;29;20159;-83
2023/07/06 03:06:35;;;;;;;4.57;3.08;;;;;;;18.12;55.50;100043.81;4714999;29;20052;-82
2023/07/06 03:10:00;;;;;;;6.15;3.20;;;;;;;18.09;56.01;100046.00;4750963;28;20052;-83
2023/07/06 03:12:49;;;;;;;11.05;3.65;;;;;;;18.17;55.58;100046.78;4804025;28;20042;-83
2023/07/06 03:15:50;;;;;;;6.72;2.63;;;;;;;18.03;56.13;100049.41;4805747;29;20604;-83
2023/07/06 03:18:40;;;;;;;6.70;3.08;;;;;;;17.96;56.43;100046.59;4805226;29;20450;-83
2023/07/06 03:23:07;;;;;;;4.90;2.67;;;;;;;17.94;56.45;100054.03;4693247;29;20107;-83
2023/07/06 03:25:43;;;;;;;5.57;3.42;;;;;;;17.94;56.42;100045.97;4714532;29;20136;-84
2023/07/06 03:28:23;;;;;;;7.57;3.40;;;;;;;17.95;56.51;100051.13;4738869;29;20343;-82
2023/07/06 03:31:04;;;;;;;5.35;2.88;;;;;;;17.92;56.60;100051.50;4705979;29;20567;-83
2023/07/06 03:34:16;;;;;;;;;;;;;;;;;;;;;
2023/07/06 03:37:04;;;;;;;5.63;3.00;;;;;;;17.88;56.65;100044.78;4743564;29;20054;-83
2023/07/06 03:39:36;;;;;;;5.82;2.95;;;;;;;17.92;56.16;100045.28;4783881;29;20056;-83
2023/07/06 03:42:19;;;;;;;10.35;4.28;;;;;;;17.93;56.57;100052.31;4778724;29;20052;-83
2023/07/06 03:45:01;;;;;;;7.78;3.33;;;;;;;17.93;56.39;100049.63;4706888;29;20525;-83
2023/07/06 03:47:33;;;;;;;7.18;3.42;;;;;;;17.91;56.66;100051.66;4776298;29;20054;-83
2023/07/06 03:50:08;;;;;;;6.03;3.33;;;;;;;17.96;56.37;100060.88;4813512;29;20115;-83
2023/07/06 03:52:52;;;;;;;5.47;3.22;;;;;;;18.04;56.41;100060.00;4778186;29;20393;-83
2023/07/06 03:55:24;;;;;;;6.38;3.60;;;;;;;18.15;56.53;100061.44;4799555;29;20177;-83
2023/07/06 03:58:02;;;;;;;6.63;3.58;;;;;;;18.32;56.85;100057.59;4867462;29;20475;-83
2023/07/06 04:00:39;;;;;;;8.88;3.40;;;;;;;18.59;57.09;100060.72;4836449;29;20107;-83
2023/07/06 04:03:33;;;;;;;5.43;3.72;;;;;;;19.21;56.22;100055.06;4821130;29;20051;-83
2023/07/06 04:06:23;;;;;;;10.13;4.45;;;;;;;19.95;52.46;100054.09;4787148;29;20048;-82
2023/07/06 04:09:20;;;;;;;7.22;3.58;;;;;;;20.77;50.34;100044.66;4766191;29;20044;-83
2023/07/06 04:12:13;;;;;;;9.10;3.58;;;;;;;21.19;47.56;100056.34;4781059;29;20064;-83
2023/07/06 04:14:50;;;;;;;7.60;3.35;;;;;;;21.17;47.86;100051.16;4834037;29;20051;-83
2023/07/06 04:17:25;;;;;;;5.35;3.53;;;;;;;20.83;48.55;100041.16;4826307;29;20494;-83
2023/07/06 04:20:00;;;;;;;6.32;3.65;;;;;;;20.55;49.17;100057.38;4895833;29;20517;-83
2023/07/06 04:22:37;;;;;;;5.25;3.42;;;;;;;20.29;49.48;100064.16;4874295;29;20435;-83
2023/07/06 04:25:09;;;;;;;6.97;3.58;;;;;;;20.13;49.67;100059.06;4873445;28;20078;-83
2023/07/06 04:27:44;;;;;;;7.20;3.67;;;;;;;19.96;50.17;100066.53;4881663;29;20451;-83
2023/07/06 04:30:20;;;;;;;7.38;3.75;;;;;;;19.87;50.65;100067.66;4864698;29;20051;-83
2023/07/06 04:32:54;;;;;;;8.57;3.70;;;;;;;19.78;50.56;100061.56;4820523;28;20579;-83
2023/07/06 04:35:27;;;;;;;9.90;3.72;;;;;;;19.79;50.53;100065.94;4840527;29;20588;-84
2023/07/06 04:38:25;;;;;;;5.55;3.55;;;;;;;19.73;50.87;100067.53;4884722;29;20056;-83
2023/07/06 04:40:59;;;;;;;6.63;3.53;;;;;;;19.70;51.06;100062.53;4842916;28;20047;-83
2023/07/06 04:43:34;;;;;;;7.97;4.07;;;;;;;19.72;50.90;100065.03;4912503;28;20208;-83
2023/07/06 04:46:12;;;;;;;8.57;3.88;;;;;;;19.76;50.84;100077.09;4862704;28;20051;-83
2023/07/06 04:48:47;;;;;;;6.85;3.80;;;;;;;19.69;50.92;100071.66;4856686;28;20048;-84
2023/07/06 04:51:18;;;;;;;7.82;4.07;;;;;;;19.65;51.37;100064.91;4878867;29;20063;-83
2023/07/06 04:53:45;;;;;;;7.68;3.60;;;;;;;19.67;51.46;100064.78;4876200;29;20099;-83
2023/07/06 04:56:18;;;;;;;9.82;4.30;;;;;;;19.57;51.49;100073.13;4859133;29;20067;-83
2023/07/06 04:59:03;;;;;;;8.13;4.20;;;;;;;19.55;51.73;100079.72;4862204;29;20098;-84
2023/07/06 05:01:36;;;;;;;9.88;4.68;;;;;;;19.40;51.93;100082.44;4867792;29;20056;-84
2023/07/06 05:04:17;;;;;;;5.75;3.95;;;;;;;19.21;52.06;100073.03;4836367;29;20043;-83
2023/07/06 05:06:54;;;;;;;9.05;4.20;;;;;;;19.15;52.56;100082.69;4860360;29;20808;-83
2023/07/06 05:09:26;;;;;;;7.30;3.78;;;;;;;19.14;52.67;100083.72;4880948;29;20063;-84
2023/07/06 05:11:56;;;;;;;13.20;4.80;;;;;;;19.09;52.74;100091.53;4895004;29;20055;-83
2023/07/06 05:14:24;;;;;;;8.55;4.38;;;;;;;19.01;52.71;100091.63;4891287;29;20135;-84
2023/07/06 05:16:54;;;;;;;11.98;4.28;;;;;;;18.90;53.06;100086.69;4897903;29;20148;-83
2023/07/06 05:19:23;;;;;;;13.55;4.95;;;;;;;18.93;53.26;100094.38;4864386;29;20150;-83
2023/07/06 05:21:57;;;;;;;11.60;5.13;;;;;;;18.84;53.25;100088.25;4859770;29;20050;-83
2023/07/06 05:24:27;;;;;;;8.68;4.43;;;;;;;18.94;53.43;100098.75;4793432;29;20048;-84
2023/07/06 05:26:59;;;;;;;10.00;4.57;;;;;;;18.89;53.53;100085.00;4879236;29;20120;-83
2023/07/06 05:29:28;;;;;;;10.10;4.68;;;;;;;18.90;53.65;100086.69;4878003;29;20517;-84
2023/07/06 05:32:01;;;;;;;6.38;4.13;;;;;;;18.97;53.55;100088.44;4866668;29;20431;-83
2023/07/06 05:34:33;;;;;;;11.00;5.10;;;;;;;18.98;53.51;100086.59;4866839;29;20536;-83
2023/07/06 05:37:27;;;;;;;10.75;5.10;;;;;;;18.95;53.77;100081.56;4797530;29;20060;-84
2023/07/06 05:40:06;;;;;;;11.57;4.22;;;;;;;18.91;54.12;100085.69;4872980;29;20668;-84
2023/07/06 05:42:34;;;;;;;11.20;4.13;;;;;;;18.98;53.54;100083.88;4895766;28;20055;-83
2023/07/06 05:45:07;;;;;;;9.75;4.30;;;;;;;19.00;54.20;100085.38;4843624;29;20063;-84
2023/07/06 05:47:49;;;;;;;7.57;4.65;;;;;;;19.07;54.00;100090.88;4857539;29;20422;-83
2023/07/06 05:50:23;;;;;;;8.27;3.97;;;;;;;19.11;54.29;100097.56;4818897;29;20166;-83
2023/07/06 05:52:56;;;;;;;8.30;4.32;;;;;;;19.16;53.87;100102.38;4842860;29;20496;-83
2023/07/06 05:55:29;;;;;;;5.60;4.15;;;;;;;19.17;53.97;100098.69;4851008;28;20047;-83
2023/07/06 05:58:04;;;;;;;8.00;4.15;;;;;;;19.14;53.66;100091.81;4883772;29;20624;-84
2023/07/06 06:00:36;;;;;;;12.90;3.85;;;;;;;19.15;54.13;100098.84;4874530;28;20113;-85
2023/07/06 06:03:11;;;;;;;8.13;4.10;;;;;;;19.13;53.77;100090.13;4898687;29;20051;-84
2023/07/06 06:05:42;;;;;;;7.77;4.27;;;;;;;19.18;54.04;100106.56;4859199;29;20048;-83
2023/07/06 06:08:19;;;;;;;12.02;4.25;;;;;;;19.13;54.06;100100.88;4843493;28;20044;-84
2023/07/06 06:11:01;;;;;;;11.20;4.63;;;;;;;19.20;54.38;100099.13;4808631;29;20367;-83
2023/07/06 06:13:55;;;;;;;9.88;4.40;;;;;;;19.13;54.18;100102.75;4874656;29;20044;-84
2023/07/06 06:16:23;;;;;;;9.52;4.68;;;;;;;19.19;54.04;100110.94;4870620;29;20480;-84
2023/07/06 06:18:57;;;;;;;9.88;4.93;;;;;;;19.21;54.26;100106.22;4879281;29;20478;-84
2023/07/06 06:21:30;;;;;;;11.48;4.57;;;;;;;19.29;54.16;100114.19;4877201;29;20493;-84
2023/07/06 06:24:02;;;;;;;7.80;4.10;;;;;;;19.23;53.98;100112.25;4860011;28;20134;-84
2023/07/06 06:26:35;;;;;;;8.23;4.03;;;;;;;19.24;54.30;100111.22;4879089;29;20520;-83
2023/07/06 06:29:05;;;;;;;11.10;4.72;;;;;;;19.27;54.07;100110.84;4867952;29;20052;-83
2023/07/06 06:31:42;;;;;;;9.80;4.82;;;;;;;19.32;53.88;100122.91;4854735;29;20406;-84
2023/07/06 06:34:15;;;;;;;12.43;5.10;;;;;;;19.33;54.13;100113.81;4904051;29;20493;-84
2023/07/06 06:36:48;;;;;;;11.48;5.30;;;;;;;19.37;54.21;100115.94;4885669;28;20276;-84
2023/07/06 06:39:16;;;;;;;6.95;3.80;;;;;;;19.40;54.20;100114.75;4887434;29;20394;-83
2023/07/06 06:41:47;;;;;;;8.00;4.43;;;;;;;19.39;54.13;100118.47;4889102;29;20115;-83
2023/07/06 06:44:20;;;;;;;9.43;4.70;;;;;;;19.40;53.84;100120.13;4891896;29;20136;-84
2023/07/06 06:47:04;;;;;;;8.95;4.25;;;;;;;19.41;54.22;100113.72;4874580;29;20473;-84
2023/07/06 06:49:54;;;;;;;12.75;4.82;;;;;;;19.42;54.17;100110.84;4888049;29;20059;-84
2023/07/06 06:52:26;;;;;;;9.05;4.43;;;;;;;19.52;53.95;100124.84;4874055;29;20059;-84
2023/07/06 06:54:55;;;;;;;15.95;5.45;;;;;;;19.52;53.99;100116.78;4907554;29;20047;-83
2023/07/06 06:57:22;;;;;;;9.73;4.63;;;;;;;19.57;54.20;100113.53;4884585;29;20047;-84
2023/07/06 06:59:53;;;;;;;5.85;4.00;;;;;;;19.61;54.29;100111.28;4887949;29;20056;-83
2023/07/06 07:02:26;;;;;;;8.30;3.80;;;;;;;19.66;54.04;100114.25;4857671;29;20378;-83
2023/07/06 07:04:59;;;;;;;10.63;4.00;;;;;;;19.68;53.95;100112.25;4863177;29;20050;-83
2023/07/06 07:07:37;;;;;;;10.07;3.80;;;;;;;19.66;53.78;100092.69;4841476;29;20048;-83
2023/07/06 07:10:15;;;;;;;10.90;3.88;;;;;;;19.71;53.29;100104.59;4881719;28;20505;-83
2023/07/06 07:12:47;;;;;;;6.72;3.47;;;;;;;19.77;53.09;100096.78;4866882;29;20067;-83
2023/07/06 07:15:15;;;;;;;7.82;3.80;;;;;;;19.78;52.96;100101.16;4890784;29;20390;-83
2023/07/06 07:17:44;;;;;;;14.05;4.43;;;;;;;19.86;53.27;100112.66;4889311;29;20583;-83
2023/07/06 07:20:16;;;;;;;6.20;3.28;;;;;;;19.93;52.91;100108.19;4884743;29;20096;-83
2023/07/06 07:22:44;;;;;;;8.60;3.40;;;;;;;19.92;52.26;100106.53;4899984;29;20536;-83
2023/07/06 07:25:17;;;;;;;9.27;3.72;;;;;;;19.95;53.17;100100.75;4877177;29;20060;-83
2023/07/06 07:27:46;;;;;;;11.45;3.78;;;;;;;20.02;53.03;100105.38;4917869;28;20066;-83
2023/07/06 07:30:17;;;;;;;9.45;4.05;;;;;;;20.08;52.49;100107.31;4907020;28;20043;-83
2023/07/06 07:32:47;;;;;;;11.43;4.60;;;;;;;20.07;52.65;100105.63;4881934;29;20512;-83
2023/07/06 07:35:15;;;;;;;9.85;3.53;;;;;;;20.12;52.27;100103.19;4886024;29;20131;-83
2023/07/06 07:37:50;;;;;;;12.18;3.35;;;;;;;20.16;52.24;100105.31;4882874;29;20371;-83
2023/07/06 07:40:18;;;;;;;8.43;3.65;;;;;;;20.19;51.89;100105.97;4899598;29;20071;-83
2023/07/06 07:42:49;;;;;;;6.65;2.95;;;;;;;20.25;52.29;100107.88;4900659;29;20055;-83
2023/07/06 07:45:18;;;;;;;6.00;3.42;;;;;;;20.29;52.17;100101.09;4893011;29;20511;-83
2023/07/06 07:48:05;;;;;;;11.57;3.45;;;;;;;20.21;52.12;100109.31;4848251;29;20051;-83
2023/07/06 07:50:32;;;;;;;7.78;3.45;;;;;;;20.33;51.63;100103.22;4883985;28;20058;-83
2023/07/06 07:53:02;;;;;;;7.13;2.78;;;;;;;20.39;51.01;100104.31;4889801;28;20104;-84
2023/07/06 07:55:46;;;;;;;8.30;3.03;;;;;;;20.42;51.40;100098.53;4867435;29;20040;-84
2023/07/06 07:58:34;;;;;;;7.55;3.47;;;;;;;20.44;51.26;100101.88;4896527;28;20051;-83
2023/07/06 08:01:06;;;;;;;6.47;2.85;;;;;;;20.51;51.01;100108.16;4887406;29;20055;-84
2023/07/06 08:03:36;;;;;;;6.72;2.70;;;;;;;20.50;51.13;100103.78;4892702;29;20063;-82
2023/07/06 08:06:07;;;;;;;8.43;3.22;;;;;;;20.53;50.62;100100.72;4878336;29;20047;-83
2023/07/06 08:08:36;;;;;;;6.53;2.90;;;;;;;20.55;50.63;100095.13;4884475;29;20040;-83
2023/07/06 08:11:09;;;;;;;7.88;2.83;;;;;;;20.61;50.85;100105.16;4916102;29;20420;-83
2023/07/06 08:13:39;;;;;;;6.85;3.10;;;;;;;20.65;50.69;100101.03;4871458;29;20056;-83
2023/07/06 08:16:12;;;;;;;4.93;3.08;;;;;;;20.64;50.27;100096.69;4890808;29;20071;-83
2023/07/06 08:18:44;;;;;;;6.65;3.08;;;;;;;20.68;50.40;100099.81;4857448;29;20152;-83
2023/07/06 08:21:21;;;;;;;6.68;3.17;;;;;;;20.68;49.95;100097.94;4875894;29;20059;-83
2023/07/06 08:24:08;;;;;;;8.30;2.65;;;;;;;20.72;50.11;100098.41;4905354;29;20151;-82
2023/07/06 08:26:35;;;;;;;7.30;3.28;;;;;;;20.74;49.61;100101.75;4906552;29;20142;-82
2023/07/06 08:29:02;;;;;;;6.13;2.70;;;;;;;20.73;49.82;100097.34;4900766;29;20158;-83
2023/07/06 08:31:33;;;;;;;7.18;2.47;;;;;;;20.75;49.81;100100.69;4873496;28;20052;-83
2023/07/06 08:34:03;;;;;;;7.85;3.10;;;;;;;20.81;50.42;100097.19;4897932;29;20052;-83
2023/07/06 08:36:39;;;;;;;6.03;2.85;;;;;;;20.84;49.70;100093.28;4859542;28;20048;-84
2023/07/06 08:39:11;;;;;;;7.38;3.40;;;;;;;20.92;49.61;100095.84;4894111;28;20131;-84
2023/07/06 08:41:42;;;;;;;4.90;2.95;;;;;;;20.97;49.33;100101.50;4872951;29;20075;-84
2023/07/06 08:44:11;;;;;;;5.95;2.80;;;;;;;20.95;48.83;100098.16;4891417;28;20055;-83
2023/07/06 08:46:54;;;;;;;5.20;2.80;;;;;;;20.94;48.95;100102.72;4895028;29;20063;-83
2023/07/06 08:49:59;;;;;;;;;;;;;;;20.74;48.02;100099.88;4811538;29;20057;-83
2023/07/06 08:52:34;;;;;;;8.45;3.30;;;;;;;20.87;48.60;100095.63;4828771;29;19927;-84
2023/07/06 08:55:49;;;;;;;7.97;2.95;;;;;;;20.83;47.53;100097.03;4871999;29;20419;-83
2023/07/06 08:59:15;;;;;;;5.05;2.30;;;;;;;20.88;47.26;100087.28;4752287;29;20273;-84
2023/07/06 09:02:48;;;;;;;6.25;2.40;;;;;;;20.88;47.83;100092.69;4855169;29;20481;-84
2023/07/06 09:06:42;;;;;;;8.50;2.92;;;;;;;20.95;47.83;100088.19;4785570;29;20296;-85
2023/07/06 09:09:16;;;;;;;5.10;2.50;;;;;;;21.00;47.82;100079.50;4852269;29;20073;-84
2023/07/06 09:11:51;;;;;;;6.70;2.30;;;;;;;21.09;46.94;100069.38;4824326;29;20055;-83
2023/07/06 09:14:28;;;;;;;8.60;2.33;;;;;;;21.05;47.26;100073.50;4902536;29;20055;-83
2023/07/06 09:17:00;;;;;;;4.63;2.30;;;;;;;21.15;46.80;100084.78;4898514;28;20122;-83
2023/07/06 09:19:27;;;;;;;7.35;2.50;;;;;;;21.14;46.21;100075.84;4917793;29;20064;-84
2023/07/06 09:21:55;;;;;;;6.03;2.20;;;;;;;21.19;46.06;100081.50;4854716;28;20055;-83
2023/07/06 09:24:27;;;;;;;10.20;2.70;;;;;;;21.22;46.61;100078.41;4917182;29;20393;-84
2023/07/06 09:27:00;;;;;;;5.35;2.28;;;;;;;21.29;46.39;100073.00;4923465;28;20054;-83
2023/07/06 09:29:32;;;;;;;6.55;2.63;;;;;;;21.36;46.90;100079.28;4918880;28;20909;-83
2023/07/06 09:32:15;;;;;;;12.43;3.30;;;;;;;21.39;46.24;100073.50;4906153;29;20561;-83
2023/07/06 09:34:44;;;;;;;3.78;2.03;;;;;;;21.45;46.62;100072.72;4906914;29;20067;-83
2023/07/06 09:37:17;;;;;;;8.88;2.40;;;;;;;21.54;46.28;100073.38;4871998;29;20138;-83
2023/07/06 09:40:06;;;;;;;8.55;2.92;;;;;;;21.53;45.79;100070.88;4907222;28;20054;-84
2023/07/06 09:42:33;;;;;;;2.95;2.15;;;;;;;21.62;45.85;100075.06;4894028;29;20581;-83
2023/07/06 09:45:02;;;;;;;9.15;2.80;;;;;;;21.65;46.19;100070.09;4907051;29;20497;-83
2023/07/06 09:47:30;;;;;;;7.90;2.53;;;;;;;21.71;46.18;100075.75;4921104;29;20048;-83
2023/07/06 09:50:11;;;;;;;7.40;2.38;;;;;;;21.67;45.42;100080.69;4905540;29;20048;-84
2023/07/06 09:52:40;;;;;;;4.82;2.65;;;;;;;21.77;45.63;100075.75;4925667;29;20103;-84
2023/07/06 09:55:19;;;;;;;5.10;2.67;;;;;;;21.72;45.28;100075.50;4914029;29;20051;-84
2023/07/06 09:57:50;;;;;;;8.82;2.97;;;;;;;21.77;45.66;100074.91;4920399;29;20422;-83
2023/07/06 10:00:20;;;;;;;5.32;2.50;;;;;;;21.73;45.39;100088.00;4895120;29;20477;-84
2023/07/06 10:02:53;;;;;;;7.80;2.75;;;;;;;21.68;45.39;100093.19;4902190;29;20158;-84
2023/07/06 10:05:39;;;;;;;5.85;2.50;;;;;;;21.67;45.55;100086.09;4916868;29;20047;-83
2023/07/06 10:08:12;;;;;;;6.15;2.20;;;;;;;21.64;45.19;100081.94;4920414;29;20279;-83
2023/07/06 10:10:52;;;;;;;5.50;2.70;;;;;;;21.62;45.49;100091.28;4918772;28;20052;-84
2023/07/06 10:13:42;;;;;;;9.15;2.50;;;;;;;21.64;44.48;100083.81;4916288;29;20145;-84
2023/07/06 10:16:23;;;;;;;4.32;2.20;;;;;;;21.73;44.92;100088.00;4905145;28;20052;-83
2023/07/06 10:18:55;;;;;;;6.07;2.45;;;;;;;21.78;44.66;100076.56;4888115;28;20055;-83
2023/07/06 10:21:28;;;;;;;7.40;2.90;;;;;;;21.86;44.63;100079.13;4922596;29;20505;-84
2023/07/06 10:24:30;;;;;;;9.35;2.72;;;;;;;21.87;44.32;100080.78;4904374;28;20443;-83
2023/07/06 10:27:00;;;;;;;3.60;2.42;;;;;;;21.91;44.23;100089.31;4905003;29;20408;-83
2023/07/06 10:29:34;;;;;;;6.10;2.78;;;;;;;21.85;43.93;100088.25;4902501;29;20139;-84
2023/07/06 10:32:05;;;;;;;7.13;2.70;;;;;;;21.86;42.98;100090.75;4904104;29;20048;-83
2023/07/06 10:34:54;;;;;;;8.15;2.83;;;;;;;21.86;41.00;100081.81;4917314;29;20349;-83
2023/07/06 10:37:24;;;;;;;5.28;2.38;;;;;;;21.91;42.40;100084.75;4898444;29;20046;-83
2023/07/06 10:39:58;;;;;;;5.20;2.55;;;;;;;21.96;42.93;100081.44;4899285;29;20549;-84
2023/07/06 10:42:27;;;;;;;4.88;2.17;;;;;;;22.01;43.33;100063.56;4918317;29;20053;-84
2023/07/06 10:45:02;;;;;;;7.35;2.90;;;;;;;22.07;43.33;100078.94;4905414;29;20047;-83
2023/07/06 10:47:44;;;;;;;3.95;2.50;;;;;;;21.95;41.51;100082.44;4903280;29;20082;-84
2023/07/06 10:50:23;;;;;;;6.15;2.90;;;;;;;21.92;40.86;100089.09;4916773;29;20354;-85
2023/07/06 10:53:04;;;;;;;5.70;2.70;;;;;;;21.75;40.68;100077.81;4831826;29;20524;-83
2023/07/06 10:55:36;;;;;;;4.13;2.20;;;;;;;21.81;40.88;100087.00;4849896;29;20054;-84
2023/07/06 10:58:23;;;;;;;4.30;2.20;;;;;;;21.74;41.46;100076.16;4875626;29;20594;-83
2023/07/06 11:00:51;;;;;;;4.32;2.35;;;;;;;21.85;41.78;100078.28;4912268;28;20787;-83
2023/07/06 11:03:25;;;;;;;7.97;2.95;;;;;;;21.94;41.35;100073.50;4919465;28;20054;-83
2023/07/06 11:05:55;;;;;;;3.67;2.47;;;;;;;21.96;40.97;100074.16;4912860;29;20055;-83
2023/07/06 11:09:10;;;;;;;4.47;2.50;;;;;;;21.93;41.24;100082.69;4917377;28;20048;-83
2023/07/06 11:11:43;;;;;;;5.95;2.72;;;;;;;21.98;41.38;100076.63;4903475;29;20513;-83
2023/07/06 11:14:39;;;;;;;;;;;;;;;21.83;42.08;100077.66;4919817;29;20148;-83
2023/07/06 11:17:10;;;;;;;6.10;2.60;;;;;;;21.99;41.46;100079.16;4895882;29;19934;-83
2023/07/06 11:19:42;;;;;;;7.45;2.63;;;;;;;22.05;41.70;100075.59;4918702;29;20524;-83
2023/07/06 11:22:13;;;;;;;6.95;2.50;;;;;;;22.08;40.96;100071.66;4920642;29;20051;-83
2023/07/06 11:24:48;;;;;;;5.43;2.53;;;;;;;22.14;41.12;100073.56;4889037;29;20055;-83
2023/07/06 11:27:24;;;;;;;5.45;2.42;;;;;;;22.12;38.85;100078.34;4917029;29;20138;-84
2023/07/06 11:30:01;;;;;;;11.50;2.97;;;;;;;22.21;39.67;100070.88;4918990;29;20039;-83
2023/07/06 11:32:48;;;;;;;6.88;2.72;;;;;;;22.17;40.37;100083.97;4920346;29;20052;-83
2023/07/06 11:35:45;;;;;;;7.53;2.67;;;;;;;22.21;40.30;100068.19;4905138;29;20158;-84
2023/07/06 11:38:42;;;;;;;4.13;2.30;;;;;;;22.15;40.42;100077.91;4902546;29;20052;-84
2023/07/06 11:41:13;;;;;;;4.25;2.70;;;;;;;22.28;40.21;100072.56;4914055;29;20135;-83
2023/07/06 11:44:19;;;;;;;4.13;2.83;;;;;;;22.27;39.91;100065.50;4915878;29;20071;-83
2023/07/06 11:47:34;;;;;;;4.97;2.95;;;;;;;22.31;40.48;100063.19;4914378;29;20071;-83
2023/07/06 11:50:03;;;;;;;5.85;2.78;;;;;;;22.46;40.37;100066.53;4890430;28;20741;-83
2023/07/06 11:52:32;;;;;;;5.40;2.92;;;;;;;22.47;40.42;100059.28;4892915;29;20052;-83
2023/07/06 11:55:18;;;;;;;7.18;2.53;;;;;;;22.46;40.05;100063.81;4881460;29;20052;-83
2023/07/06 11:58:05;;;;;;;5.13;2.70;;;;;;;22.41;38.05;100060.09;4852961;28;20047;-83
2023/07/06 12:00:48;;;;;;;7.32;3.03;;;;;;;22.50;39.07;100058.84;4831102;28;20047;-84
2023/07/06 12:03:16;;;;;;;4.85;2.95;;;;;;;22.51;39.14;100057.78;4865788;29;20113;-84
2023/07/06 12:05:49;;;;;;;4.00;2.47;;;;;;;22.50;38.22;100056.13;4827537;29;20071;-83
2023/07/06 12:08:35;;;;;;;5.32;2.60;;;;;;;22.50;38.22;100056.13;4866699;29;20489;-84
2023/07/06 12:11:03;;;;;;;5.30;2.92;;;;;;;22.59;38.43;100054.03;4902093;29;20630;-83
2023/07/06 12:14:00;;;;;;;4.47;2.53;;;;;;;22.50;37.61;100050.72;4823945;29;20052;-84
2023/07/06 12:16:43;;;;;;;4.38;2.42;;;;;;;22.52;38.76;100054.88;4841803;29;20131;-83
2023/07/06 12:26:46;;;;;;;9.25;3.15;;;;;;;22.46;37.93;100036.75;4822046;29;20534;-83
2023/07/06 12:30:28;;;;;;;10.32;2.95;;;;;;;22.39;38.03;100032.41;4840214;28;20092;-84
2023/07/06 12:37:34;;;;;;;4.57;2.90;;;;;;;22.47;38.59;100033.03;4883994;28;20050;-83
2023/07/06 12:43:46;;;;;;;5.20;2.90;;;;;;;22.44;38.82;100030.75;4901808;28;20049;-84
2023/07/06 12:46:13;;;;;;;;;;;;;;;22.41;39.47;100036.56;4943283;28;20402;-84
2023/07/06 12:48:51;;;;;;;5.30;2.78;;;;;;;22.59;38.76;100035.94;4961791;28;20008;-83
2023/07/06 12:51:33;;;;;;;6.00;2.95;;;;;;;22.63;38.75;100023.66;4888670;28;20046;-84
2023/07/06 13:02:15;;;;;;;3.75;2.53;;;;;;;22.61;37.95;100014.91;4899315;23;20043;-84
2023/07/06 13:05:50;;;;;;;5.63;2.53;;;;;;;22.65;38.07;100001.78;4843439;28;21440;-84
2023/07/06 13:15:46;;;;;;;6.05;2.60;;;;;;;22.80;37.66;99994.28;4939109;28;20046;-84
2023/07/06 13:18:19;;;;;;;8.80;3.03;;;;;;;22.86;37.16;99998.81;4896708;28;20058;-84
2023/07/06 13:21:18;;;;;;;6.75;3.55;;;;;;;22.90;36.87;99993.84;3039829;26;20159;-83
2023/07/06 13:24:03;;;;;;;5.13;2.63;;;;;;;22.92;37.00;99989.88;4846628;28;20511;-84
2023/07/06 13:26:51;;;;;;;7.13;3.35;;;;;;;22.98;37.69;99993.63;4924701;28;20051;-83
2023/07/06 13:29:20;;;;;;;3.95;2.83;;;;;;;23.02;37.47;99994.03;4902651;28;20050;-83
2023/07/06 13:31:53;;;;;;;6.93;2.53;;;;;;;23.03;37.20;99993.00;4923694;28;20050;-83
2023/07/06 13:34:23;;;;;;;4.03;2.60;;;;;;;23.10;37.36;99991.94;4911765;28;20053;-83
2023/07/06 13:36:54;;;;;;;5.00;2.80;;;;;;;23.12;37.42;99994.41;4938335;28;20050;-83
2023/07/06 13:39:25;;;;;;;6.30;3.08;;;;;;;23.18;37.28;99994.38;4939334;28;20042;-83
2023/07/06 14:01:07;;;;;;;5.03;2.55;;;;;;;23.13;35.59;99985.25;4743151;29;20140;-84
2023/07/06 14:09:11;;;;;;;7.07;3.00;;;;;;;23.09;35.88;99984.81;4634370;30;20401;-83
2023/07/06 14:13:00;;;;;;;4.13;2.80;;;;;;;23.24;35.60;99979.16;4689083;29;20049;-83
2023/07/06 14:21:15;;;;;;;9.27;2.97;;;;;;;23.31;35.24;99974.53;4671963;29;20574;-84
2023/07/06 14:37:37;;;;;;;7.70;2.88;;;;;;;23.39;35.34;99962.63;3029401;23;20078;-84
2023/07/06 14:41:46;;;;;;;5.50;2.70;;;;;;;23.44;35.15;99967.41;4759104;29;20107;-84
2023/07/06 14:45:55;;;;;;;12.50;3.33;;;;;;;23.59;35.23;99957.91;4741980;29;20527;-84
2023/07/06 14:49:39;;;;;;;4.60;2.47;;;;;;;23.47;35.37;99961.53;4844561;23;20059;-84
2023/07/06 14:52:16;;;;;;;4.72;2.78;;;;;;;23.57;35.97;99956.47;4868452;28;20054;-84
2023/07/06 14:55:40;;;;;;;6.10;2.78;;;;;;;23.52;36.16;99970.66;4922742;28;20055;-84
2023/07/06 15:02:00;;;;;;;6.18;2.83;;;;;;;23.58;35.61;99961.69;4877455;28;20412;-83
2023/07/06 15:09:37;;;;;;;9.10;3.33;;;;;;;23.68;35.14;99960.34;4943809;23;20052;-83
2023/07/06 15:16:13;;;;;;;4.72;2.75;;;;;;;23.83;35.63;99967.16;4917303;29;20540;-84
2023/07/06 15:18:49;;;;;;;5.40;2.22;;;;;;;23.91;35.08;99962.53;4792518;29;20048;-85
2023/07/06 15:29:03;;;;;;;4.93;2.90;;;;;;;23.91;34.83;99963.34;4885598;29;20126;-86
2023/07/06 15:31:32;;;;;;;5.78;2.97;;;;;;;23.95;34.68;99958.34;4813806;29;20151;-86